Time;durP1;ratioP1;P1;durP2;ratioP2;P2;SDS_P1;SDS_P2;PMS_P1;PMS_P2;Temp;Humidity;BMP_temperature;BMP_pressure;BME280_temperature;BME280_humidity;BME280_pressure;Samples;Min_cycle;Max_cycle;Signal;HPM_P1;HPM_P2
2022/02/05 00:00:32;;;;;;;3.80;2.45;;;;;;;9.69;48.85;101222.28;4975188;28;20073;-84
2022/02/05 00:05:52;;;;;;;4.63;2.90;;;;;;;9.68;48.45;101224.13;4972171;28;20073;-85
2022/02/05 00:43:09;;;;;;;4.45;2.50;;;;;;;9.46;49.08;101266.97;4995703;28;20383;-86
2022/02/05 00:45:40;;;;;;;5.90;2.53;;;;;;;9.46;48.89;101275.97;5005647;28;20054;-86
2022/02/05 00:48:08;;;;;;;5.55;2.38;;;;;;;9.47;48.90;101276.84;5014215;28;20536;-86
2022/02/05 00:50:43;;;;;;;3.40;2.03;;;;;;;9.49;48.92;101281.22;5024173;28;20061;-86
2022/02/05 00:53:27;;;;;;;5.45;2.58;;;;;;;9.53;48.91;101276.50;5014664;28;20045;-86
2022/02/05 00:56:13;;;;;;;5.05;2.40;;;;;;;9.48;48.89;101284.88;5013630;28;20054;-86
2022/02/05 00:58:40;;;;;;;4.28;2.20;;;;;;;9.45;48.83;101281.47;5014806;28;20485;-86
2022/02/05 01:01:08;;;;;;;5.43;2.10;;;;;;;9.46;48.97;101284.09;4996638;28;20054;-86
2022/02/05 01:03:37;;;;;;;4.80;2.35;;;;;;;9.47;49.09;101285.84;4995312;28;20390;-86
2022/02/05 01:06:05;;;;;;;4.93;2.30;;;;;;;9.49;49.00;101286.63;4993045;28;20113;-86
2022/02/05 01:08:33;;;;;;;4.78;2.30;;;;;;;9.48;48.96;101295.72;4995813;28;20134;-85
2022/02/05 01:11:01;;;;;;;4.80;2.03;;;;;;;9.50;49.10;101287.50;4993425;28;20050;-86
2022/02/05 01:13:31;;;;;;;4.03;1.88;;;;;;;9.51;49.20;101291.97;4994031;28;20100;-85
2022/02/05 01:16:15;;;;;;;6.32;2.03;;;;;;;9.51;49.06;101298.28;4983686;28;20069;-86
2022/02/05 01:18:44;;;;;;;5.15;2.45;;;;;;;9.52;48.89;101296.44;4994512;28;20053;-86
2022/02/05 01:21:30;;;;;;;5.90;2.20;;;;;;;9.53;49.01;101300.91;4993017;28;20113;-86
2022/02/05 01:24:02;;;;;;;3.88;2.13;;;;;;;9.52;48.94;101310.00;4993889;28;20481;-86
2022/02/05 01:26:38;;;;;;;4.50;2.00;;;;;;;9.50;48.67;101310.06;5011424;28;20137;-86
2022/02/05 01:29:19;;;;;;;5.15;2.10;;;;;;;9.50;48.58;101315.50;5018875;28;20060;-85
2022/02/05 01:31:52;;;;;;;6.35;2.78;;;;;;;9.50;48.77;101314.59;5016973;28;20677;-86
2022/02/05 01:34:27;;;;;;;;;;;;;;;9.30;49.35;101320.25;5024713;28;20045;-86
2022/02/05 01:48:55;;;;;;;4.88;2.25;;;;;;;9.46;48.82;101324.75;5013495;28;20046;-86
2022/02/05 02:09:55;;;;;;;6.10;2.10;;;;;;;9.48;49.16;101368.03;5016850;28;20609;-86
2022/02/05 02:12:26;;;;;;;4.47;2.47;;;;;;;9.46;49.09;101365.41;5024303;28;20386;-85
2022/02/05 02:15:02;;;;;;;4.20;2.00;;;;;;;9.49;48.73;101367.06;5020169;28;20139;-85
2022/02/05 02:22:58;;;;;;;5.35;2.13;;;;;;;9.47;48.59;101364.44;5013560;28;20053;-86
2022/02/05 02:25:55;;;;;;;5.82;2.00;;;;;;;9.44;48.53;101361.91;4994183;28;20105;-86
2022/02/05 02:28:39;;;;;;;5.15;1.90;;;;;;;9.43;48.79;101368.28;5004066;28;20053;-86
2022/02/05 02:31:11;;;;;;;4.30;2.25;;;;;;;9.40;48.98;101372.97;5009293;28;20072;-85
2022/02/05 02:33:43;;;;;;;4.80;2.03;;;;;;;9.41;48.56;101372.03;5025081;28;20516;-85
2022/02/05 02:36:24;;;;;;;5.87;2.30;;;;;;;9.41;48.92;101377.44;5008960;28;20397;-86
2022/02/05 02:38:58;;;;;;;5.60;2.05;;;;;;;9.40;48.92;101376.56;5006034;28;20379;-86
2022/02/05 02:41:58;;;;;;;6.82;2.10;;;;;;;9.38;48.84;101378.50;5010704;28;20072;-86
2022/02/05 02:44:31;;;;;;;4.13;1.85;;;;;;;9.38;49.02;101389.34;5010287;28;20046;-85
2022/02/05 02:47:00;;;;;;;4.45;1.80;;;;;;;9.41;48.90;101391.00;5012210;28;20053;-86
2022/02/05 02:58:02;;;;;;;5.65;1.90;;;;;;;9.38;48.48;101408.31;5015892;28;20049;-85
2022/02/05 03:00:29;;;;;;;4.32;1.80;;;;;;;9.37;48.87;101417.41;5002799;28;20053;-85
2022/02/05 03:02:56;;;;;;;5.75;2.10;;;;;;;9.36;48.74;101412.94;4998957;28;20312;-86
2022/02/05 03:05:23;;;;;;;3.65;1.73;;;;;;;9.36;48.58;101417.47;5010864;28;20049;-86
2022/02/05 03:07:51;;;;;;;5.35;1.80;;;;;;;9.36;48.80;101420.19;5013147;28;20057;-85
2022/02/05 03:10:18;;;;;;;4.57;1.88;;;;;;;9.37;48.80;101420.09;5010936;28;20088;-85
2022/02/05 03:12:44;;;;;;;5.15;1.98;;;;;;;9.36;48.82;101418.34;5012967;28;20054;-85
2022/02/05 03:15:14;;;;;;;4.15;1.83;;;;;;;9.37;48.70;101420.09;5008999;28;20046;-86
2022/02/05 03:18:01;;;;;;;5.28;1.98;;;;;;;9.38;48.58;101415.56;5011836;28;20053;-86
2022/02/05 03:20:30;;;;;;;3.58;1.80;;;;;;;9.36;48.57;101417.47;5010510;28;20049;-85
2022/02/05 03:22:57;;;;;;;5.45;1.88;;;;;;;9.34;48.84;101427.50;5012477;28;20153;-86
2022/02/05 03:25:24;;;;;;;4.25;1.92;;;;;;;9.34;48.66;101427.50;5012149;28;20145;-86
2022/02/05 03:27:50;;;;;;;4.28;1.92;;;;;;;9.32;48.85;101432.13;5031519;28;20057;-87
2022/02/05 03:30:17;;;;;;;4.30;1.75;;;;;;;9.32;48.44;101441.13;5025224;28;20072;-86
2022/02/05 03:32:44;;;;;;;3.92;1.92;;;;;;;9.30;48.63;101428.66;5020218;28;20145;-84
2022/02/05 03:35:11;;;;;;;4.72;1.70;;;;;;;9.32;48.70;101432.13;5011655;28;20050;-86
2022/02/05 03:37:38;;;;;;;5.15;1.95;;;;;;;9.30;48.78;101440.34;5012637;28;20057;-86
2022/02/05 03:40:06;;;;;;;3.70;1.55;;;;;;;9.31;48.70;101438.50;5012911;28;20464;-86
2022/02/05 03:42:34;;;;;;;4.60;1.73;;;;;;;9.31;48.76;101438.50;5011477;28;20062;-85
2022/02/05 03:45:02;;;;;;;6.78;1.85;;;;;;;9.31;48.85;101439.38;5009709;28;20049;-86
2022/02/05 03:47:33;;;;;;;5.70;1.83;;;;;;;9.33;48.44;101448.31;5011768;28;20108;-85
2022/02/05 03:50:04;;;;;;;4.22;1.67;;;;;;;9.32;48.62;101445.69;5010747;28;20506;-85
2022/02/05 03:52:33;;;;;;;3.50;1.60;;;;;;;9.33;48.60;101448.31;5009620;28;20267;-86
2022/02/05 03:55:00;;;;;;;4.97;1.50;;;;;;;9.29;48.53;101454.88;5004585;28;20038;-85
2022/02/05 03:57:30;;;;;;;3.88;1.70;;;;;;;9.32;48.49;101459.22;5009456;28;20795;-86
2022/02/05 03:59:57;;;;;;;4.70;1.70;;;;;;;9.29;48.62;101456.69;5009829;28;20062;-86
2022/02/05 04:02:24;;;;;;;5.00;1.75;;;;;;;9.29;48.43;101460.28;5013330;28;20553;-85
2022/02/05 04:04:51;;;;;;;3.50;1.65;;;;;;;9.26;48.60;101465.84;4991020;28;20057;-85
2022/02/05 04:07:18;;;;;;;4.38;1.75;;;;;;;9.26;48.53;101464.97;5022197;28;20053;-85
2022/02/05 04:09:46;;;;;;;5.43;1.63;;;;;;;9.23;48.46;101468.69;5010023;28;20041;-85
2022/02/05 04:18:02;;;;;;;3.50;1.70;;;;;;;9.18;48.56;101478.91;4997154;28;20053;-86
2022/02/05 04:20:29;;;;;;;5.25;1.88;;;;;;;9.17;48.64;101477.16;4999303;28;20540;-86
2022/02/05 04:22:57;;;;;;;4.03;1.67;;;;;;;9.18;48.66;101478.91;5011245;28;20135;-86
2022/02/05 04:25:24;;;;;;;5.13;1.73;;;;;;;9.16;48.63;101478.97;5000366;28;20505;-86
2022/02/05 04:27:50;;;;;;;7.15;1.80;;;;;;;9.16;48.59;101489.81;5014527;28;20100;-85
2022/02/05 04:30:17;;;;;;;5.68;1.40;;;;;;;9.17;48.45;101482.56;5006376;28;20128;-85
2022/02/05 04:32:44;;;;;;;3.25;1.55;;;;;;;9.18;48.46;101480.75;5004064;28;20061;-86
2022/02/05 04:35:11;;;;;;;3.95;1.58;;;;;;;9.18;48.70;101481.63;5005055;28;20049;-85
2022/02/05 04:37:37;;;;;;;3.67;1.48;;;;;;;9.18;48.47;101492.47;5014676;28;20080;-86
2022/02/05 04:40:43;;;;;;;3.80;1.50;;;;;;;9.18;48.54;101488.88;5013197;28;20054;-85
2022/02/05 04:46:28;;;;;;;3.60;1.70;;;;;;;9.16;48.83;101489.81;5013190;28;20058;-85
2022/02/05 05:01:47;;;;;;;4.88;1.55;;;;;;;9.15;48.48;101508.84;5012271;28;20096;-86
2022/02/05 05:20:18;;;;;;;4.65;2.03;;;;;;;9.06;48.78;101526.44;4996970;28;20104;-85
2022/02/05 05:22:45;;;;;;;3.38;1.60;;;;;;;9.07;48.58;101530.91;5013706;28;20124;-85
2022/02/05 05:25:14;;;;;;;6.07;1.90;;;;;;;9.11;48.21;101528.94;5003733;28;20129;-86
2022/02/05 05:27:41;;;;;;;5.53;1.65;;;;;;;9.06;48.18;101522.84;5013992;28;20054;-86
2022/02/05 05:30:09;;;;;;;4.80;1.70;;;;;;;9.05;48.45;101529.25;4989475;28;20084;-85
2022/02/05 05:32:37;;;;;;;4.30;1.77;;;;;;;9.03;48.35;101534.75;5002576;28;20050;-85
2022/02/05 05:35:05;;;;;;;4.57;1.63;;;;;;;9.03;48.58;101536.56;5003315;28;20054;-86
2022/02/05 05:37:32;;;;;;;3.67;1.63;;;;;;;9.01;48.63;101533.94;5014874;28;20432;-85
2022/02/05 05:39:59;;;;;;;3.95;1.60;;;;;;;9.03;48.51;101542.00;4996689;28;20100;-86
2022/02/05 05:42:38;;;;;;;6.32;2.10;;;;;;;9.02;48.78;101543.81;4994633;28;20053;-85
2022/02/05 05:47:56;;;;;;;4.97;1.80;;;;;;;9.04;48.68;101551.88;4994110;28;20046;-86
2022/02/05 05:53:14;;;;;;;7.15;1.90;;;;;;;9.08;48.23;101557.06;4991500;28;20050;-84
2022/02/05 05:55:43;;;;;;;4.95;2.05;;;;;;;9.06;48.72;101553.53;4989072;28;20114;-84
2022/02/05 05:58:10;;;;;;;5.97;1.73;;;;;;;9.06;48.74;101552.66;4994238;28;20089;-83
2022/02/05 06:00:38;;;;;;;4.40;2.10;;;;;;;9.08;48.38;101551.63;4970355;28;20110;-84
2022/02/05 06:03:06;;;;;;;4.68;2.10;;;;;;;9.09;48.41;101550.69;5011185;28;20085;-84
2022/02/05 06:05:33;;;;;;;3.72;1.83;;;;;;;9.09;48.58;101560.63;4988664;28;20053;-84
2022/02/05 06:08:00;;;;;;;5.10;1.90;;;;;;;9.06;48.60;101556.25;5013169;28;20057;-84
2022/02/05 06:10:27;;;;;;;4.05;1.67;;;;;;;9.06;48.62;101566.19;5004722;28;20053;-83
2022/02/05 06:13:00;;;;;;;4.35;1.90;;;;;;;9.09;48.64;101569.66;5019069;28;20056;-84
2022/02/05 06:15:29;;;;;;;3.72;1.90;;;;;;;9.06;48.44;101569.78;5008148;28;20132;-84
2022/02/05 06:17:58;;;;;;;6.20;2.03;;;;;;;9.07;48.38;101568.84;5011443;28;20049;-84
2022/02/05 06:20:27;;;;;;;4.47;1.73;;;;;;;9.07;48.72;101567.94;5014541;28;20115;-84
2022/02/05 06:22:54;;;;;;;3.88;1.92;;;;;;;9.06;48.46;101579.75;5019327;28;20045;-84
2022/02/05 06:25:23;;;;;;;4.32;1.85;;;;;;;9.05;48.58;101578.00;5007334;28;20057;-84
2022/02/05 06:27:50;;;;;;;5.35;1.67;;;;;;;9.03;48.79;101582.63;5012115;28;20056;-84
2022/02/05 06:30:42;;;;;;;7.18;2.00;;;;;;;9.04;48.26;101585.25;5004808;28;20406;-83
2022/02/05 06:33:19;;;;;;;5.35;1.92;;;;;;;9.00;48.75;101594.47;5003174;28;20050;-84
2022/02/05 06:35:46;;;;;;;5.35;1.90;;;;;;;9.01;48.49;101598.06;5007434;28;20075;-83
2022/02/05 06:38:12;;;;;;;4.30;1.95;;;;;;;9.00;48.77;101594.47;5021729;28;20068;-83
2022/02/05 06:40:45;;;;;;;5.95;1.75;;;;;;;9.02;48.43;101594.41;5011559;28;20056;-84
2022/02/05 06:43:12;;;;;;;5.00;2.03;;;;;;;9.01;48.64;101596.22;5008822;28;20053;-84
2022/02/05 06:45:39;;;;;;;5.55;1.90;;;;;;;9.02;48.37;101591.69;5012076;28;20057;-83
2022/02/05 06:48:07;;;;;;;4.85;2.05;;;;;;;9.02;48.58;101599.81;5012191;28;20115;-84
2022/02/05 06:50:37;;;;;;;5.90;2.03;;;;;;;9.04;48.46;101600.63;5011258;28;20115;-84
2022/02/05 06:53:07;;;;;;;6.57;1.77;;;;;;;9.01;48.31;101595.34;5010577;28;20049;-84
2022/02/05 06:55:37;;;;;;;4.18;1.60;;;;;;;8.99;48.33;101603.53;5007863;28;20121;-84
2022/02/05 06:58:04;;;;;;;5.13;1.90;;;;;;;8.98;48.18;101604.50;5012219;28;20061;-84
2022/02/05 07:00:31;;;;;;;5.07;2.00;;;;;;;8.99;48.38;101608.06;5011587;28;20049;-84
2022/02/05 07:03:00;;;;;;;4.47;1.85;;;;;;;8.97;48.56;101610.88;5013379;28;20141;-84
2022/02/05 07:05:27;;;;;;;5.20;1.85;;;;;;;8.98;48.54;101615.31;5042723;28;20033;-84
2022/02/05 07:07:54;;;;;;;4.35;1.75;;;;;;;8.99;48.63;101621.63;5054077;28;20053;-84
2022/02/05 07:10:21;;;;;;;4.07;1.90;;;;;;;8.99;48.64;101617.09;5021449;28;20080;-83
2022/02/05 07:13:03;;;;;;;4.45;1.90;;;;;;;9.00;48.53;101629.69;5001207;28;20062;-84
2022/02/05 07:15:34;;;;;;;3.25;1.77;;;;;;;8.98;48.93;101619.84;5010742;28;20046;-84
2022/02/05 07:20:57;;;;;;;7.90;2.08;;;;;;;8.97;48.73;101621.72;5011510;28;20486;-84
2022/02/05 07:31:25;;;;;;;5.80;1.88;;;;;;;8.98;48.51;101628.88;5017737;28;20563;-84
2022/02/05 07:33:52;;;;;;;5.80;2.22;;;;;;;8.98;48.54;101633.41;5011443;28;20116;-84
2022/02/05 07:36:19;;;;;;;3.85;1.80;;;;;;;8.98;48.58;101638.81;5015330;28;20061;-83
2022/02/05 07:38:49;;;;;;;3.70;1.65;;;;;;;9.00;48.46;101636.94;5015593;28;20100;-84
2022/02/05 07:41:15;;;;;;;4.38;1.88;;;;;;;8.97;48.63;101629.84;5010572;28;20142;-84
2022/02/05 07:43:42;;;;;;;3.85;1.60;;;;;;;8.99;48.48;101635.16;5012377;28;20741;-83
2022/02/05 07:46:11;;;;;;;7.10;2.33;;;;;;;8.98;48.64;101636.09;5009648;28;20061;-85
2022/02/05 07:48:38;;;;;;;4.60;1.63;;;;;;;8.98;48.55;101636.09;5011593;28;20068;-84
2022/02/05 07:51:06;;;;;;;4.85;1.80;;;;;;;8.98;48.64;101649.66;5010060;28;20053;-84
2022/02/05 07:53:34;;;;;;;4.82;1.85;;;;;;;8.98;48.68;101655.06;5011146;28;20485;-84
2022/02/05 07:56:01;;;;;;;4.05;1.77;;;;;;;8.98;48.96;101655.06;5009101;28;20050;-84
2022/02/05 07:58:28;;;;;;;4.43;1.73;;;;;;;8.96;48.77;101668.72;5012619;28;20057;-84
2022/02/05 08:01:04;;;;;;;3.92;1.63;;;;;;;9.00;49.01;101673.00;4996869;28;20137;-84
2022/02/05 08:03:33;;;;;;;4.60;1.90;;;;;;;8.97;48.86;101662.34;5009386;28;20061;-84
2022/02/05 08:06:05;;;;;;;5.43;1.65;;;;;;;8.99;49.05;101671.25;4992875;28;20453;-85
2022/02/05 08:08:35;;;;;;;4.45;2.00;;;;;;;9.02;49.06;101672.94;4996760;28;20048;-84
2022/02/05 08:11:05;;;;;;;4.38;1.92;;;;;;;9.03;48.97;101663.88;4985588;28;20077;-83
2022/02/05 08:13:35;;;;;;;6.65;2.10;;;;;;;9.03;48.81;101662.03;5029359;28;20049;-85
2022/02/05 08:16:25;;;;;;;4.65;1.80;;;;;;;9.04;48.63;101668.34;5003763;28;20057;-84
2022/02/05 08:18:56;;;;;;;4.53;1.90;;;;;;;9.01;49.05;101674.78;5017527;28;20501;-83
2022/02/05 08:21:22;;;;;;;3.70;1.63;;;;;;;9.04;48.83;101673.75;5029537;28;20289;-84
2022/02/05 08:23:49;;;;;;;5.75;1.98;;;;;;;9.05;49.09;101679.13;5014893;28;20064;-83
2022/02/05 08:26:23;;;;;;;3.47;1.80;;;;;;;9.06;48.92;101672.72;5012423;28;20054;-84
2022/02/05 08:28:50;;;;;;;6.13;1.98;;;;;;;9.08;48.93;101678.94;5014233;28;20120;-84
2022/02/05 08:31:18;;;;;;;5.70;2.38;;;;;;;9.09;49.02;101677.13;5019021;28;20751;-84
2022/02/05 08:33:48;;;;;;;3.65;1.85;;;;;;;9.11;49.05;101691.47;5013476;28;20046;-84
2022/02/05 08:36:23;;;;;;;5.55;1.98;;;;;;;9.12;49.12;101688.69;5011739;28;20501;-84
2022/02/05 08:38:55;;;;;;;6.18;1.92;;;;;;;9.15;48.65;101699.38;5018071;28;20103;-84
2022/02/05 08:41:22;;;;;;;4.68;1.85;;;;;;;9.10;49.26;101698.72;5014249;28;20046;-85
2022/02/05 08:43:48;;;;;;;4.88;2.05;;;;;;;9.13;48.98;101701.31;5015273;28;20050;-86
2022/02/05 08:46:17;;;;;;;5.22;1.70;;;;;;;9.15;49.16;101703.91;5012355;28;20053;-85
2022/02/05 08:48:44;;;;;;;5.95;2.20;;;;;;;9.14;49.10;101697.59;5013991;28;20077;-84
2022/02/05 08:51:14;;;;;;;6.20;2.20;;;;;;;9.14;49.13;101700.31;5010512;28;20052;-85
2022/02/05 08:53:41;;;;;;;5.15;2.10;;;;;;;9.14;49.14;101700.31;5023211;28;20111;-84
2022/02/05 08:56:08;;;;;;;6.10;2.08;;;;;;;9.16;49.24;101695.72;5016977;28;20062;-83
2022/02/05 08:58:36;;;;;;;10.07;2.42;;;;;;;9.18;49.20;101692.94;5006899;28;20042;-84
2022/02/05 09:01:17;;;;;;;7.03;2.08;;;;;;;9.19;49.28;101694.69;5008655;28;20588;-84
2022/02/05 09:06:11;;;;;;;5.13;2.00;;;;;;;9.22;49.11;101683.72;4984463;28;20047;-81
2022/02/05 09:08:48;;;;;;;5.55;1.90;;;;;;;9.25;49.51;101686.28;4993586;28;20493;-81
2022/02/05 09:11:34;;;;;;;7.43;2.95;;;;;;;9.27;49.63;101684.38;5009692;28;20073;-82
2022/02/05 09:16:46;;;;;;;7.28;2.25;;;;;;;9.30;49.77;101689.66;5012590;28;20108;-81
2022/02/05 09:19:13;;;;;;;5.97;2.20;;;;;;;9.34;49.55;101693.06;5013206;28;20046;-81
2022/02/05 09:21:40;;;;;;;5.57;2.15;;;;;;;9.37;49.66;101685.69;5014497;28;20061;-82
2022/02/05 09:24:08;;;;;;;6.07;2.03;;;;;;;9.40;49.71;101690.94;5011512;28;20635;-82
2022/02/05 09:26:47;;;;;;;6.57;2.63;;;;;;;9.43;49.69;101693.50;4992529;28;20601;-81
2022/02/05 09:29:21;;;;;;;5.15;1.95;;;;;;;9.48;49.77;101686.03;4995166;28;20046;-79
2022/02/05 09:31:49;;;;;;;3.92;1.90;;;;;;;9.51;49.87;101683.16;5031913;28;20079;-79
2022/02/05 09:34:17;;;;;;;6.68;2.20;;;;;;;9.57;49.86;101681.97;5012778;28;20050;-81
2022/02/05 09:36:44;;;;;;;4.85;2.00;;;;;;;9.62;49.67;101685.38;5015993;28;20046;-81
2022/02/05 09:39:12;;;;;;;6.35;2.10;;;;;;;9.68;49.88;101687.75;5023756;28;20551;-80
2022/02/05 09:41:43;;;;;;;4.60;2.22;;;;;;;9.73;49.53;101695.66;4993897;28;20053;-82
2022/02/05 09:44:10;;;;;;;6.70;2.15;;;;;;;9.77;49.75;101694.56;4987560;28;20043;-81
2022/02/05 09:46:40;;;;;;;6.95;2.08;;;;;;;9.82;49.67;101703.34;5012025;28;20046;-79
2022/02/05 09:49:11;;;;;;;6.13;1.90;;;;;;;9.85;49.95;101704.06;5015274;28;20049;-85
2022/02/05 09:51:50;;;;;;;5.45;2.22;;;;;;;9.88;49.97;101717.44;4996464;28;20049;-79
2022/02/05 09:54:19;;;;;;;4.90;2.20;;;;;;;9.96;49.84;101717.09;4992248;28;20054;-79
2022/02/05 09:56:47;;;;;;;3.83;1.75;;;;;;;9.99;50.11;101711.50;5006581;28;20543;-80
2022/02/05 09:59:13;;;;;;;4.53;2.00;;;;;;;10.05;50.14;101722.03;4988753;28;20046;-79
2022/02/05 10:01:43;;;;;;;8.52;2.17;;;;;;;10.12;49.94;101717.19;4998596;28;20054;-80
2022/02/05 10:04:13;;;;;;;8.35;2.20;;;;;;;10.14;49.96;101723.41;4998545;28;20058;-80
2022/02/05 10:06:50;;;;;;;7.57;2.70;;;;;;;10.23;49.75;101721.13;5010234;28;20405;-79
2022/02/05 10:09:18;;;;;;;5.68;2.40;;;;;;;10.27;49.79;101727.28;5000492;28;20057;-80
2022/02/05 10:11:52;;;;;;;7.50;3.08;;;;;;;10.32;49.60;101736.06;5013492;28;20164;-80
2022/02/05 10:14:23;;;;;;;5.68;2.53;;;;;;;10.38;49.88;101724.88;5015141;28;20053;-79
2022/02/05 10:16:55;;;;;;;8.88;2.58;;;;;;;10.41;49.72;101723.84;5012322;28;20497;-79
2022/02/05 10:19:23;;;;;;;7.13;2.45;;;;;;;10.45;49.58;101734.47;5011452;28;20382;-80
2022/02/05 10:22:14;;;;;;;5.57;2.33;;;;;;;10.53;49.02;101729.53;5027108;28;20066;-79
2022/02/05 10:24:55;;;;;;;5.72;2.50;;;;;;;10.58;49.12;101735.59;5005071;28;20061;-79
2022/02/05 10:27:38;;;;;;;7.35;2.67;;;;;;;10.62;48.88;101733.59;4991954;28;20441;-79
2022/02/05 10:30:24;;;;;;;6.93;2.25;;;;;;;10.63;49.01;101735.31;4974205;28;20061;-80
2022/02/05 10:33:18;;;;;;;5.97;2.45;;;;;;;10.67;48.76;101743.25;4987198;28;20054;-81
2022/02/05 10:44:12;;;;;;;8.43;2.47;;;;;;;10.77;48.55;101742.75;4998233;28;20073;-81
2022/02/05 10:46:44;;;;;;;7.95;2.28;;;;;;;10.79;49.03;101749.00;4988015;28;20133;-80
2022/02/05 10:49:13;;;;;;;6.40;2.20;;;;;;;10.82;49.02;101746.97;4980906;28;20061;-80
2022/02/05 10:51:43;;;;;;;5.38;2.13;;;;;;;10.84;48.91;101742.34;4984858;28;20065;-80
2022/02/05 10:57:21;;;;;;;8.02;2.20;;;;;;;10.91;49.16;101738.34;4992742;28;20065;-80
2022/02/05 11:08:22;;;;;;;7.25;2.50;;;;;;;11.00;48.98;101723.38;5006874;28;20042;-80
2022/02/05 11:13:56;;;;;;;6.03;2.25;;;;;;;11.11;48.71;101720.94;4999961;28;20093;-79
2022/02/05 11:16:47;;;;;;;6.80;2.40;;;;;;;11.16;48.47;101728.84;4997880;28;20043;-80
2022/02/05 11:19:13;;;;;;;6.05;2.00;;;;;;;11.16;48.55;101710.69;4992801;28;20153;-80
2022/02/05 11:21:48;;;;;;;5.50;2.20;;;;;;;11.20;48.37;101714.97;5011389;28;20064;-79
2022/02/05 11:24:21;;;;;;;8.57;2.70;;;;;;;11.23;48.17;101713.94;5008582;28;20056;-79
2022/02/05 11:26:50;;;;;;;5.25;2.50;;;;;;;11.25;47.90;101712.91;4988643;28;20054;-81
2022/02/05 11:29:31;;;;;;;5.70;2.50;;;;;;;11.26;47.27;101714.66;4989629;28;20054;-79
2022/02/05 11:32:24;;;;;;;6.88;2.40;;;;;;;11.25;47.19;101717.44;4986718;28;20482;-79
2022/02/05 11:35:04;;;;;;;;;;;;;;;11.02;48.24;101719.63;4991641;28;20046;-79
2022/02/05 11:37:31;;;;;;;6.05;2.00;;;;;;;11.19;47.80;101709.66;4996717;28;19926;-78
2022/02/05 11:39:58;;;;;;;6.00;2.50;;;;;;;11.23;47.78;101711.22;4993397;28;20054;-78
2022/02/05 11:42:36;;;;;;;5.75;2.75;;;;;;;11.29;47.42;101710.88;4996684;28;20061;-80
2022/02/05 11:45:25;;;;;;;6.75;2.88;;;;;;;11.30;47.11;101699.03;4990737;28;20054;-79
2022/02/05 11:47:52;;;;;;;5.53;2.33;;;;;;;11.31;47.51;101706.22;4996197;28;20085;-79
2022/02/05 11:50:23;;;;;;;5.72;2.17;;;;;;;11.32;47.17;101706.16;4993897;28;20058;-79
2022/02/05 11:52:49;;;;;;;6.70;2.60;;;;;;;11.33;47.28;101701.59;4996346;28;20502;-79
2022/02/05 11:55:38;;;;;;;5.80;2.22;;;;;;;11.32;47.15;101708.88;5002071;28;20049;-78
2022/02/05 11:58:09;;;;;;;5.57;2.13;;;;;;;11.34;47.73;101709.66;5018506;28;20115;-79
2022/02/05 12:00:52;;;;;;;6.60;2.28;;;;;;;11.40;46.80;101712.03;5003608;28;20493;-78
2022/02/05 12:03:26;;;;;;;;;;;;;;;11.18;47.95;101705.16;4996696;28;20132;-79
2022/02/05 12:05:55;;;;;;;6.18;2.50;;;;;;;11.38;47.31;101710.34;4993248;28;19921;-79
2022/02/05 12:08:24;;;;;;;5.60;2.40;;;;;;;11.43;46.70;101709.16;5011032;28;20413;-79
2022/02/05 12:10:52;;;;;;;7.85;3.15;;;;;;;11.47;46.45;101706.22;4997154;28;20054;-79
2022/02/05 12:13:27;;;;;;;6.28;2.20;;;;;;;11.45;46.55;101712.63;4997430;28;20059;-79
2022/02/05 12:15:54;;;;;;;4.97;2.40;;;;;;;11.42;46.72;101704.66;5002084;28;20046;-78
2022/02/05 12:18:30;;;;;;;5.82;2.78;;;;;;;11.44;46.71;101699.16;4996250;28;20054;-78
2022/02/05 12:26:20;;;;;;;6.03;2.60;;;;;;;11.44;46.43;101686.44;4993830;28;20050;-79
2022/02/05 12:28:49;;;;;;;5.68;2.75;;;;;;;11.42;46.72;101687.47;4995683;28;20046;-79
2022/02/05 12:31:20;;;;;;;4.82;2.60;;;;;;;11.43;46.66;101684.66;4988620;28;20144;-79
2022/02/05 12:34:20;;;;;;;5.68;2.30;;;;;;;11.43;46.67;101681.06;4995667;28;20085;-79
2022/02/05 12:36:50;;;;;;;6.82;2.45;;;;;;;11.43;46.47;101673.78;4982297;28;20042;-79
2022/02/05 12:39:27;;;;;;;4.63;2.33;;;;;;;11.48;46.19;101678.97;4998088;28;20101;-79
2022/02/05 12:41:58;;;;;;;5.55;2.15;;;;;;;11.44;46.22;101667.41;4993995;28;20053;-79
2022/02/05 12:44:28;;;;;;;4.57;2.30;;;;;;;11.45;46.05;101658.25;4991387;28;20076;-78
2022/02/05 12:46:58;;;;;;;6.95;2.67;;;;;;;11.46;46.16;101659.13;4992020;28;20622;-78
2022/02/05 12:49:32;;;;;;;4.80;2.20;;;;;;;11.48;45.97;101659.03;4983642;28;20053;-79
2022/02/05 12:52:01;;;;;;;5.60;2.40;;;;;;;11.48;45.99;101656.31;5013298;28;20064;-78
2022/02/05 12:54:30;;;;;;;4.88;2.20;;;;;;;11.52;46.21;101655.19;5013713;28;20072;-78
2022/02/05 12:56:59;;;;;;;5.50;2.63;;;;;;;11.52;46.06;101645.19;5013943;28;20477;-78
2022/02/05 12:59:35;;;;;;;3.97;2.00;;;;;;;11.57;45.59;101662.13;5012541;28;20045;-78
2022/02/05 13:02:07;;;;;;;3.60;1.70;;;;;;;11.57;46.23;101648.50;5014728;28;20082;-78
2022/02/05 13:04:35;;;;;;;6.00;1.90;;;;;;;11.60;46.25;101666.50;5013577;28;20050;-78
2022/02/05 13:07:10;;;;;;;5.97;2.05;;;;;;;11.65;46.21;101659.81;5015059;28;20049;-79
2022/02/05 13:09:59;;;;;;;4.63;2.03;;;;;;;11.71;45.71;101662.16;5013146;28;20049;-78
2022/02/05 13:12:36;;;;;;;5.93;2.42;;;;;;;11.77;45.05;101655.56;5002253;28;20528;-78
2022/02/05 13:15:24;;;;;;;3.47;1.75;;;;;;;11.82;45.20;101650.69;5011469;28;20109;-78
2022/02/05 13:36:44;;;;;;;4.00;1.70;;;;;;;12.01;43.82;101626.88;5012200;28;20177;-80
2022/02/05 13:42:09;;;;;;;6.10;2.00;;;;;;;12.02;44.08;101625.91;5010833;28;20046;-80
2022/02/05 13:45:03;;;;;;;3.70;1.70;;;;;;;12.02;44.28;101627.75;5018508;28;20056;-80
2022/02/05 13:47:35;;;;;;;3.67;1.55;;;;;;;12.02;43.64;101636.78;5026808;28;20056;-80
2022/02/05 13:50:20;;;;;;;5.28;1.73;;;;;;;12.00;43.54;101630.56;5012079;28;20049;-81
2022/02/05 13:52:50;;;;;;;5.10;1.63;;;;;;;11.97;43.87;101633.44;5010694;28;20108;-80
2022/02/05 13:55:21;;;;;;;4.28;1.70;;;;;;;11.97;43.77;101633.44;5010766;28;20053;-80
2022/02/05 13:58:09;;;;;;;5.05;1.60;;;;;;;11.97;43.28;101627.13;5011094;28;20128;-79
2022/02/05 14:00:51;;;;;;;5.05;1.77;;;;;;;11.96;43.03;101622.66;5011991;28;20038;-80
2022/02/05 14:03:36;;;;;;;4.55;1.85;;;;;;;11.97;43.65;101608.06;5012505;28;20456;-79
2022/02/05 14:06:13;;;;;;;5.07;2.00;;;;;;;11.91;43.81;101609.34;5009712;28;20393;-79
2022/02/05 14:08:44;;;;;;;3.03;1.63;;;;;;;11.91;43.81;101611.19;5012787;28;20140;-80
2022/02/05 14:11:16;;;;;;;4.28;1.90;;;;;;;11.91;43.11;101595.72;5015228;28;20057;-81
2022/02/05 14:13:57;;;;;;;4.30;2.07;;;;;;;11.90;43.33;101598.53;5022445;28;20117;-80
2022/02/05 14:16:38;;;;;;;5.57;1.80;;;;;;;11.89;43.31;101602.22;5009659;28;20040;-79
2022/02/05 14:19:06;;;;;;;4.10;1.73;;;;;;;11.85;43.60;101601.56;5008433;28;20485;-79
2022/02/05 14:21:46;;;;;;;5.25;1.80;;;;;;;11.86;43.64;101588.81;4965491;28;20064;-78
2022/02/05 14:24:23;;;;;;;5.65;1.67;;;;;;;11.85;43.30;101587.94;5002522;28;20432;-80
2022/02/05 14:26:57;;;;;;;5.45;1.98;;;;;;;11.89;43.41;101592.22;5023067;28;20666;-79
2022/02/05 14:29:24;;;;;;;3.22;1.70;;;;;;;11.85;43.59;101598.84;5012632;28;20493;-79
2022/02/05 14:31:55;;;;;;;5.75;1.83;;;;;;;11.84;43.31;101598.91;5011998;28;20136;-79
2022/02/05 14:42:13;;;;;;;4.20;1.23;;;;;;;11.84;42.67;101593.47;5002105;28;20108;-78
2022/02/05 14:44:42;;;;;;;4.68;1.50;;;;;;;11.83;42.80;101606.19;4997270;28;20141;-78
2022/02/05 14:47:09;;;;;;;2.88;1.40;;;;;;;11.82;42.60;101591.72;5007740;28;20100;-78
2022/02/05 14:49:36;;;;;;;3.72;1.55;;;;;;;11.80;42.62;101607.25;5008429;28;20057;-79
2022/02/05 14:52:03;;;;;;;4.68;1.52;;;;;;;11.81;42.59;101600.84;5008363;28;20061;-79
2022/02/05 14:54:31;;;;;;;4.68;1.70;;;;;;;11.84;42.27;101582.59;5007352;28;20433;-81
2022/02/05 14:56:58;;;;;;;4.00;1.50;;;;;;;11.80;42.43;101588.22;5008263;28;20088;-79
2022/02/05 14:59:24;;;;;;;3.90;1.40;;;;;;;11.80;42.77;101593.66;5006841;28;20088;-78
2022/02/05 15:01:52;;;;;;;5.85;1.50;;;;;;;11.82;42.62;101591.72;5008714;28;20050;-78
2022/02/05 15:04:19;;;;;;;4.75;1.63;;;;;;;11.86;42.22;101591.56;5007069;28;20072;-79
2022/02/05 15:06:47;;;;;;;3.10;1.25;;;;;;;11.86;41.94;101589.66;5008507;28;20077;-78
2022/02/05 15:09:14;;;;;;;4.00;1.35;;;;;;;11.84;42.05;101586.19;5006008;28;20077;-78
2022/02/05 15:11:40;;;;;;;4.30;1.35;;;;;;;11.82;42.03;101585.41;5010952;28;20477;-78